Impacts METAR Board
IDs:

KOPF - Miami/Opa Locka Arpt, FL, US

Updated at: 1900 UTC 21 Sep 2021
Potential Impact None Slight Moderate High
Time 21/07Z 21/08Z 21/09Z 21/10Z 21/11Z 21/12Z 21/13Z 21/14Z 21/15Z 21/16Z 21/17Z 21/18Z 21/19Z
Temp80 79 79 80 78 79 81 82 83 83 86 87 87
Dewpt72 74 75 76 73 73 74 76 74 75 75 75 75
Altim29.99 29.98 29.97 29.97 29.99 30.01 30.02 30.04 30.05 30.05 30.04 30.01 30.00
VIS10 10 10 10 10 10 10 10 10 10 10 10 10
CIG-- 41 -- -- -- -- -- -- -- -- -- -- --
CoverCLRBKNCLRCLRFEWCLRCLRFEWCLRCLRCLRCLRSCT
FltCatVFRVFRVFRVFRVFRVFRVFRVFRVFRVFRVFRVFRVFR
WX---RA----------------------
WDir2040103070030060020100160
WSpd4 3 3 5 4 0 3 5 4 0 4 3 7
WGst-- -- -- -- -- -- -- -- -- -- -- -- --
Raw hourly METARs
KOPF 210653Z AUTO 02004KT 10SM CLR 27/22 A2999 RMK AO2 SLP157 T02670222
KOPF 210753Z AUTO 04003KT 10SM -RA FEW018 BKN041 BKN049 26/23 A2998 RMK AO2 RAB30 SLP153 P0000 T02610233
KOPF 210853Z AUTO 01003KT 10SM CLR 26/24 A2997 RMK AO2 RAE0757 SLP149 P0000 60000 T02610239 58011
KOPF 210953Z AUTO 03005KT 10SM CLR 27/24 A2997 RMK AO2 SLP151 T02670244
KOPF 211053Z 07004KT 10SM FEW015 26/23 A2999 RMK AO2 SLP155 T02560228
KOPF 211153Z 00000KT 10SM CLR 26/23 A3001 RMK AO2 SLP161 60000 T02610228 10267 20256 53011
KOPF 211253Z 03003KT 10SM CLR 27/23 A3002 RMK AO2 LTG DSNT N SLP168 T02720233
KOPF 211353Z VRB05KT 10SM FEW031 28/24 A3004 RMK AO2 SLP173 T02780244
KOPF 211453Z 06004KT 10SM CLR 28/23 A3005 RMK AO2 SLP178 T02830233 51017
KOPF 211553Z 00000KT 10SM CLR 28/24 A3005 RMK AO2 LTG DSNT SW RAB07E50 SLP176 P0000 T02830239
KOPF 211653Z 02004KT 10SM CLR 30/24 A3004 RMK AO2 LTG DSNT S AND W SLP174 T03000239
KOPF 211753Z 10003KT 10SM CLR 31/24 A3001 RMK AO2 SLP164 60000 T03060239 10306 20261 58014
KOPF 211853Z 16007KT 10SM SCT030 31/24 A3000 RMK AO2 LTG DSNT SW SLP160 T03060239



Page loaded:  19:42 UTC  |   12:42 PM Pacific  |   01:42 PM Mountain  |   02:42 PM Central  |   03:42 PM Eastern

 

ADVISORIES

FORECASTS

FORECASTS

OBSERVATIONS

USER TOOLS

ABOUT US